sensor_id;sensor_type;location;lat;lon;timestamp;P1;durP1;ratioP1;P2;durP2;ratioP2
26598;SDS011;14240;51.064;16.612;2022-12-08T00:01:25;13.82;;;7.95;;
26598;SDS011;14240;51.064;16.612;2022-12-08T00:03:53;15.57;;;8.35;;
26598;SDS011;14240;51.064;16.612;2022-12-08T00:09:28;26.30;;;12.30;;
26598;SDS011;14240;51.064;16.612;2022-12-08T00:11:59;20.95;;;10.48;;
26598;SDS011;14240;51.064;16.612;2022-12-08T00:14:30;17.48;;;8.70;;
26598;SDS011;14240;51.064;16.612;2022-12-08T00:17:04;18.00;;;7.73;;
26598;SDS011;14240;51.064;16.612;2022-12-08T00:19:30;17.85;;;6.70;;
26598;SDS011;14240;51.064;16.612;2022-12-08T00:21:57;14.55;;;7.40;;
26598;SDS011;14240;51.064;16.612;2022-12-08T00:24:23;12.18;;;6.93;;
26598;SDS011;14240;51.064;16.612;2022-12-08T00:26:53;15.65;;;6.75;;
26598;SDS011;14240;51.064;16.612;2022-12-08T00:29:19;16.42;;;6.95;;
26598;SDS011;14240;51.064;16.612;2022-12-08T00:31:44;15.73;;;7.43;;
26598;SDS011;14240;51.064;16.612;2022-12-08T00:34:11;11.18;;;6.38;;
26598;SDS011;14240;51.064;16.612;2022-12-08T00:36:38;16.05;;;7.43;;
26598;SDS011;14240;51.064;16.612;2022-12-08T00:39:04;24.45;;;10.05;;
26598;SDS011;14240;51.064;16.612;2022-12-08T00:41:29;123.78;;;39.88;;
26598;SDS011;14240;51.064;16.612;2022-12-08T00:44:14;66.90;;;18.63;;
26598;SDS011;14240;51.064;16.612;2022-12-08T00:46:42;52.42;;;15.38;;
26598;SDS011;14240;51.064;16.612;2022-12-08T00:49:08;65.45;;;21.63;;
26598;SDS011;14240;51.064;16.612;2022-12-08T00:51:35;55.58;;;20.48;;
26598;SDS011;14240;51.064;16.612;2022-12-08T00:54:01;45.50;;;17.50;;
26598;SDS011;14240;51.064;16.612;2022-12-08T00:56:27;41.20;;;14.90;;
26598;SDS011;14240;51.064;16.612;2022-12-08T00:58:53;34.15;;;12.60;;
26598;SDS011;14240;51.064;16.612;2022-12-08T01:01:19;22.58;;;9.35;;
26598;SDS011;14240;51.064;16.612;2022-12-08T01:03:44;25.02;;;9.93;;
26598;SDS011;14240;51.064;16.612;2022-12-08T01:06:10;22.85;;;8.55;;
26598;SDS011;14240;51.064;16.612;2022-12-08T01:08:36;19.60;;;9.32;;
26598;SDS011;14240;51.064;16.612;2022-12-08T01:11:03;20.95;;;9.38;;
26598;SDS011;14240;51.064;16.612;2022-12-08T01:13:29;33.90;;;12.02;;
26598;SDS011;14240;51.064;16.612;2022-12-08T01:15:55;47.13;;;18.48;;
26598;SDS011;14240;51.064;16.612;2022-12-08T01:18:21;39.28;;;14.77;;
26598;SDS011;14240;51.064;16.612;2022-12-08T01:20:46;26.98;;;13.27;;
26598;SDS011;14240;51.064;16.612;2022-12-08T01:23:12;22.90;;;10.95;;
26598;SDS011;14240;51.064;16.612;2022-12-08T01:25:37;18.70;;;8.98;;
26598;SDS011;14240;51.064;16.612;2022-12-08T01:28:03;18.92;;;8.73;;
26598;SDS011;14240;51.064;16.612;2022-12-08T01:30:29;16.52;;;8.73;;
26598;SDS011;14240;51.064;16.612;2022-12-08T01:32:55;18.08;;;7.90;;
26598;SDS011;14240;51.064;16.612;2022-12-08T01:35:20;20.10;;;9.38;;
26598;SDS011;14240;51.064;16.612;2022-12-08T01:37:47;36.13;;;16.13;;
26598;SDS011;14240;51.064;16.612;2022-12-08T01:40:14;50.97;;;20.30;;
26598;SDS011;14240;51.064;16.612;2022-12-08T01:42:40;39.60;;;16.17;;
26598;SDS011;14240;51.064;16.612;2022-12-08T01:45:10;36.28;;;13.00;;
26598;SDS011;14240;51.064;16.612;2022-12-08T01:47:42;31.33;;;11.73;;
26598;SDS011;14240;51.064;16.612;2022-12-08T01:50:12;14.90;;;8.10;;
26598;SDS011;14240;51.064;16.612;2022-12-08T01:52:48;12.65;;;6.32;;
26598;SDS011;14240;51.064;16.612;2022-12-08T01:55:33;21.55;;;9.73;;
26598;SDS011;14240;51.064;16.612;2022-12-08T01:58:05;17.30;;;6.63;;
26598;SDS011;14240;51.064;16.612;2022-12-08T02:00:39;20.27;;;8.38;;
26598;SDS011;14240;51.064;16.612;2022-12-08T02:03:10;36.78;;;13.65;;
26598;SDS011;14240;51.064;16.612;2022-12-08T02:05:39;160.02;;;45.88;;
26598;SDS011;14240;51.064;16.612;2022-12-08T02:08:07;144.55;;;38.90;;
26598;SDS011;14240;51.064;16.612;2022-12-08T02:10:36;43.92;;;14.90;;
26598;SDS011;14240;51.064;16.612;2022-12-08T02:13:04;18.50;;;7.28;;
26598;SDS011;14240;51.064;16.612;2022-12-08T02:15:52;16.40;;;7.68;;
26598;SDS011;14240;51.064;16.612;2022-12-08T02:20:55;9.50;;;5.13;;
26598;SDS011;14240;51.064;16.612;2022-12-08T02:23:44;11.85;;;5.82;;
26598;SDS011;14240;51.064;16.612;2022-12-08T02:31:42;17.17;;;7.97;;
26598;SDS011;14240;51.064;16.612;2022-12-08T02:36:49;25.13;;;10.32;;
26598;SDS011;14240;51.064;16.612;2022-12-08T02:44:59;18.25;;;8.15;;
26598;SDS011;14240;51.064;16.612;2022-12-08T02:48:01;15.23;;;7.10;;
26598;SDS011;14240;51.064;16.612;2022-12-08T02:50:27;16.90;;;8.73;;
26598;SDS011;14240;51.064;16.612;2022-12-08T02:52:53;21.23;;;9.30;;
26598;SDS011;14240;51.064;16.612;2022-12-08T02:55:29;24.13;;;10.52;;
26598;SDS011;14240;51.064;16.612;2022-12-08T03:03:40;15.48;;;7.20;;
26598;SDS011;14240;51.064;16.612;2022-12-08T03:06:27;11.98;;;7.40;;
26598;SDS011;14240;51.064;16.612;2022-12-08T03:09:16;16.83;;;8.07;;
26598;SDS011;14240;51.064;16.612;2022-12-08T03:11:46;18.10;;;8.50;;
26598;SDS011;14240;51.064;16.612;2022-12-08T03:14:30;25.30;;;10.43;;
26598;SDS011;14240;51.064;16.612;2022-12-08T03:16:57;26.52;;;13.05;;
26598;SDS011;14240;51.064;16.612;2022-12-08T03:19:25;75.60;;;24.73;;
26598;SDS011;14240;51.064;16.612;2022-12-08T03:21:56;178.98;;;56.03;;
26598;SDS011;14240;51.064;16.612;2022-12-08T03:24:27;55.60;;;19.70;;
26598;SDS011;14240;51.064;16.612;2022-12-08T03:29:33;36.28;;;15.48;;
26598;SDS011;14240;51.064;16.612;2022-12-08T03:32:02;60.25;;;16.95;;
26598;SDS011;14240;51.064;16.612;2022-12-08T03:34:35;50.97;;;18.15;;
26598;SDS011;14240;51.064;16.612;2022-12-08T03:37:04;41.30;;;16.98;;
26598;SDS011;14240;51.064;16.612;2022-12-08T03:39:30;54.05;;;20.50;;
26598;SDS011;14240;51.064;16.612;2022-12-08T03:41:55;33.60;;;15.98;;
26598;SDS011;14240;51.064;16.612;2022-12-08T03:44:21;27.42;;;12.77;;
26598;SDS011;14240;51.064;16.612;2022-12-08T03:46:47;19.05;;;10.15;;
26598;SDS011;14240;51.064;16.612;2022-12-08T03:49:12;22.70;;;12.85;;
26598;SDS011;14240;51.064;16.612;2022-12-08T03:51:38;17.27;;;9.55;;
26598;SDS011;14240;51.064;16.612;2022-12-08T03:54:03;19.98;;;11.10;;
26598;SDS011;14240;51.064;16.612;2022-12-08T03:56:30;13.02;;;7.90;;
26598;SDS011;14240;51.064;16.612;2022-12-08T03:58:58;20.15;;;9.02;;
26598;SDS011;14240;51.064;16.612;2022-12-08T04:01:24;19.77;;;10.05;;
26598;SDS011;14240;51.064;16.612;2022-12-08T04:03:51;18.87;;;9.17;;
26598;SDS011;14240;51.064;16.612;2022-12-08T04:06:17;19.30;;;8.15;;
26598;SDS011;14240;51.064;16.612;2022-12-08T04:08:43;14.25;;;7.47;;
26598;SDS011;14240;51.064;16.612;2022-12-08T04:11:09;17.42;;;8.73;;
26598;SDS011;14240;51.064;16.612;2022-12-08T04:13:35;20.05;;;10.18;;
26598;SDS011;14240;51.064;16.612;2022-12-08T04:16:03;18.40;;;9.80;;
26598;SDS011;14240;51.064;16.612;2022-12-08T04:18:29;21.55;;;9.60;;
26598;SDS011;14240;51.064;16.612;2022-12-08T04:20:55;18.95;;;9.77;;
26598;SDS011;14240;51.064;16.612;2022-12-08T04:23:21;17.40;;;9.73;;
26598;SDS011;14240;51.064;16.612;2022-12-08T04:25:47;18.50;;;8.88;;
26598;SDS011;14240;51.064;16.612;2022-12-08T04:28:13;19.13;;;9.63;;
26598;SDS011;14240;51.064;16.612;2022-12-08T04:30:38;23.17;;;11.23;;
26598;SDS011;14240;51.064;16.612;2022-12-08T04:33:04;21.98;;;11.68;;
26598;SDS011;14240;51.064;16.612;2022-12-08T04:35:30;23.65;;;12.40;;
26598;SDS011;14240;51.064;16.612;2022-12-08T04:37:55;24.73;;;12.70;;
26598;SDS011;14240;51.064;16.612;2022-12-08T04:40:21;21.67;;;11.50;;
26598;SDS011;14240;51.064;16.612;2022-12-08T04:42:47;20.20;;;11.63;;
26598;SDS011;14240;51.064;16.612;2022-12-08T04:45:12;17.17;;;9.43;;
26598;SDS011;14240;51.064;16.612;2022-12-08T04:47:38;15.77;;;9.00;;
26598;SDS011;14240;51.064;16.612;2022-12-08T04:50:04;23.05;;;10.10;;
26598;SDS011;14240;51.064;16.612;2022-12-08T04:52:31;21.00;;;11.43;;
26598;SDS011;14240;51.064;16.612;2022-12-08T04:54:56;19.88;;;10.20;;
26598;SDS011;14240;51.064;16.612;2022-12-08T04:57:22;19.77;;;9.68;;
26598;SDS011;14240;51.064;16.612;2022-12-08T04:59:47;16.17;;;8.25;;
26598;SDS011;14240;51.064;16.612;2022-12-08T05:02:13;14.90;;;8.48;;
26598;SDS011;14240;51.064;16.612;2022-12-08T05:04:47;15.27;;;8.27;;
26598;SDS011;14240;51.064;16.612;2022-12-08T05:07:12;16.65;;;8.45;;
26598;SDS011;14240;51.064;16.612;2022-12-08T05:09:38;14.20;;;7.75;;
26598;SDS011;14240;51.064;16.612;2022-12-08T05:12:04;16.35;;;8.95;;
26598;SDS011;14240;51.064;16.612;2022-12-08T05:14:30;19.15;;;8.57;;
26598;SDS011;14240;51.064;16.612;2022-12-08T05:16:55;15.80;;;9.05;;
26598;SDS011;14240;51.064;16.612;2022-12-08T05:19:21;18.33;;;9.05;;
26598;SDS011;14240;51.064;16.612;2022-12-08T05:21:46;18.83;;;9.20;;
26598;SDS011;14240;51.064;16.612;2022-12-08T05:24:12;16.88;;;9.48;;
26598;SDS011;14240;51.064;16.612;2022-12-08T05:26:37;16.73;;;8.50;;
26598;SDS011;14240;51.064;16.612;2022-12-08T05:29:03;15.50;;;8.70;;
26598;SDS011;14240;51.064;16.612;2022-12-08T05:31:29;15.57;;;8.45;;
26598;SDS011;14240;51.064;16.612;2022-12-08T05:33:54;24.92;;;10.38;;
26598;SDS011;14240;51.064;16.612;2022-12-08T05:36:20;20.48;;;10.55;;
26598;SDS011;14240;51.064;16.612;2022-12-08T05:38:46;27.40;;;11.30;;
26598;SDS011;14240;51.064;16.612;2022-12-08T05:41:13;23.60;;;11.25;;
26598;SDS011;14240;51.064;16.612;2022-12-08T05:43:43;29.85;;;11.27;;
26598;SDS011;14240;51.064;16.612;2022-12-08T05:46:09;25.98;;;10.48;;
26598;SDS011;14240;51.064;16.612;2022-12-08T05:48:35;25.20;;;11.15;;
26598;SDS011;14240;51.064;16.612;2022-12-08T05:51:01;19.35;;;9.82;;
26598;SDS011;14240;51.064;16.612;2022-12-08T05:53:27;23.50;;;11.20;;
26598;SDS011;14240;51.064;16.612;2022-12-08T05:55:53;23.00;;;9.82;;
26598;SDS011;14240;51.064;16.612;2022-12-08T05:58:20;20.67;;;11.77;;
26598;SDS011;14240;51.064;16.612;2022-12-08T06:00:47;20.75;;;10.73;;
26598;SDS011;14240;51.064;16.612;2022-12-08T06:03:14;22.27;;;9.98;;
26598;SDS011;14240;51.064;16.612;2022-12-08T06:05:42;24.42;;;11.23;;
26598;SDS011;14240;51.064;16.612;2022-12-08T06:10:36;26.13;;;11.57;;
26598;SDS011;14240;51.064;16.612;2022-12-08T06:13:02;24.27;;;11.73;;
26598;SDS011;14240;51.064;16.612;2022-12-08T06:15:27;28.85;;;13.35;;
26598;SDS011;14240;51.064;16.612;2022-12-08T06:17:53;30.00;;;11.82;;
26598;SDS011;14240;51.064;16.612;2022-12-08T06:20:19;25.05;;;12.48;;
26598;SDS011;14240;51.064;16.612;2022-12-08T06:22:44;24.90;;;12.63;;
26598;SDS011;14240;51.064;16.612;2022-12-08T06:25:10;28.80;;;13.65;;
26598;SDS011;14240;51.064;16.612;2022-12-08T06:27:35;29.58;;;13.70;;
26598;SDS011;14240;51.064;16.612;2022-12-08T06:30:01;30.08;;;13.18;;
26598;SDS011;14240;51.064;16.612;2022-12-08T06:32:27;28.35;;;13.65;;
26598;SDS011;14240;51.064;16.612;2022-12-08T06:34:52;27.40;;;12.23;;
26598;SDS011;14240;51.064;16.612;2022-12-08T06:37:18;24.85;;;12.73;;
26598;SDS011;14240;51.064;16.612;2022-12-08T06:39:44;23.65;;;9.82;;
26598;SDS011;14240;51.064;16.612;2022-12-08T06:42:10;20.75;;;11.02;;
26598;SDS011;14240;51.064;16.612;2022-12-08T06:44:54;25.33;;;10.63;;
26598;SDS011;14240;51.064;16.612;2022-12-08T06:47:20;29.02;;;12.23;;
26598;SDS011;14240;51.064;16.612;2022-12-08T06:49:46;21.98;;;11.77;;
26598;SDS011;14240;51.064;16.612;2022-12-08T06:52:11;24.88;;;13.43;;
26598;SDS011;14240;51.064;16.612;2022-12-08T06:54:37;25.30;;;12.38;;
26598;SDS011;14240;51.064;16.612;2022-12-08T06:57:03;26.52;;;12.70;;
26598;SDS011;14240;51.064;16.612;2022-12-08T06:59:28;24.80;;;12.82;;
26598;SDS011;14240;51.064;16.612;2022-12-08T07:01:54;21.40;;;11.25;;
26598;SDS011;14240;51.064;16.612;2022-12-08T07:04:21;19.38;;;10.20;;
26598;SDS011;14240;51.064;16.612;2022-12-08T07:06:46;21.98;;;11.52;;
26598;SDS011;14240;51.064;16.612;2022-12-08T07:09:12;17.75;;;10.60;;
26598;SDS011;14240;51.064;16.612;2022-12-08T07:11:38;18.85;;;10.35;;
26598;SDS011;14240;51.064;16.612;2022-12-08T07:14:03;21.95;;;10.27;;
26598;SDS011;14240;51.064;16.612;2022-12-08T07:16:29;21.88;;;10.20;;
26598;SDS011;14240;51.064;16.612;2022-12-08T07:18:55;22.17;;;10.75;;
26598;SDS011;14240;51.064;16.612;2022-12-08T07:21:20;29.13;;;14.57;;
26598;SDS011;14240;51.064;16.612;2022-12-08T07:23:46;26.63;;;13.45;;
26598;SDS011;14240;51.064;16.612;2022-12-08T07:26:14;27.67;;;13.93;;
26598;SDS011;14240;51.064;16.612;2022-12-08T07:28:40;35.92;;;19.05;;
26598;SDS011;14240;51.064;16.612;2022-12-08T07:31:07;27.80;;;15.93;;
26598;SDS011;14240;51.064;16.612;2022-12-08T07:33:41;27.73;;;16.30;;
26598;SDS011;14240;51.064;16.612;2022-12-08T07:36:07;31.13;;;13.20;;
26598;SDS011;14240;51.064;16.612;2022-12-08T07:38:33;26.25;;;11.35;;
26598;SDS011;14240;51.064;16.612;2022-12-08T07:40:58;68.97;;;25.83;;
26598;SDS011;14240;51.064;16.612;2022-12-08T07:43:24;71.70;;;26.80;;
26598;SDS011;14240;51.064;16.612;2022-12-08T07:45:50;57.55;;;20.17;;
26598;SDS011;14240;51.064;16.612;2022-12-08T07:48:16;70.85;;;25.38;;
26598;SDS011;14240;51.064;16.612;2022-12-08T07:50:41;40.20;;;19.30;;
26598;SDS011;14240;51.064;16.612;2022-12-08T07:53:07;62.95;;;27.35;;
26598;SDS011;14240;51.064;16.612;2022-12-08T07:55:33;48.67;;;19.58;;
26598;SDS011;14240;51.064;16.612;2022-12-08T07:58:03;53.35;;;21.27;;
26598;SDS011;14240;51.064;16.612;2022-12-08T08:00:29;38.00;;;16.15;;
26598;SDS011;14240;51.064;16.612;2022-12-08T08:02:54;40.28;;;16.42;;
26598;SDS011;14240;51.064;16.612;2022-12-08T08:05:20;38.55;;;16.48;;
26598;SDS011;14240;51.064;16.612;2022-12-08T08:07:46;28.30;;;12.32;;
26598;SDS011;14240;51.064;16.612;2022-12-08T08:10:12;35.45;;;14.93;;
26598;SDS011;14240;51.064;16.612;2022-12-08T08:12:38;40.05;;;17.33;;
26598;SDS011;14240;51.064;16.612;2022-12-08T08:15:04;30.73;;;14.18;;
26598;SDS011;14240;51.064;16.612;2022-12-08T08:19:57;29.42;;;13.65;;
26598;SDS011;14240;51.064;16.612;2022-12-08T08:22:24;23.15;;;13.38;;
26598;SDS011;14240;51.064;16.612;2022-12-08T08:24:50;24.98;;;11.85;;
26598;SDS011;14240;51.064;16.612;2022-12-08T08:27:22;17.02;;;8.65;;
26598;SDS011;14240;51.064;16.612;2022-12-08T08:29:49;24.63;;;11.23;;
26598;SDS011;14240;51.064;16.612;2022-12-08T08:32:14;21.30;;;12.10;;
26598;SDS011;14240;51.064;16.612;2022-12-08T08:34:40;19.50;;;9.90;;
26598;SDS011;14240;51.064;16.612;2022-12-08T08:37:06;20.13;;;10.55;;
26598;SDS011;14240;51.064;16.612;2022-12-08T08:39:31;20.77;;;10.65;;
26598;SDS011;14240;51.064;16.612;2022-12-08T08:41:57;19.25;;;10.63;;
26598;SDS011;14240;51.064;16.612;2022-12-08T08:44:23;17.35;;;10.45;;
26598;SDS011;14240;51.064;16.612;2022-12-08T08:46:48;14.70;;;8.10;;
26598;SDS011;14240;51.064;16.612;2022-12-08T08:49:14;23.05;;;10.27;;
26598;SDS011;14240;51.064;16.612;2022-12-08T08:51:39;17.83;;;10.52;;
26598;SDS011;14240;51.064;16.612;2022-12-08T08:54:05;19.13;;;11.70;;
26598;SDS011;14240;51.064;16.612;2022-12-08T08:56:31;16.27;;;9.35;;
26598;SDS011;14240;51.064;16.612;2022-12-08T08:58:56;15.55;;;8.75;;
26598;SDS011;14240;51.064;16.612;2022-12-08T09:01:23;17.77;;;8.52;;
26598;SDS011;14240;51.064;16.612;2022-12-08T09:03:50;14.32;;;8.32;;
26598;SDS011;14240;51.064;16.612;2022-12-08T09:06:16;18.58;;;9.55;;
26598;SDS011;14240;51.064;16.612;2022-12-08T09:08:43;21.58;;;10.55;;
26598;SDS011;14240;51.064;16.612;2022-12-08T09:11:09;21.17;;;9.75;;
26598;SDS011;14240;51.064;16.612;2022-12-08T09:13:35;18.60;;;10.23;;
26598;SDS011;14240;51.064;16.612;2022-12-08T09:16:02;18.77;;;10.23;;
26598;SDS011;14240;51.064;16.612;2022-12-08T09:18:30;18.33;;;10.32;;
26598;SDS011;14240;51.064;16.612;2022-12-08T09:21:02;17.70;;;11.55;;
26598;SDS011;14240;51.064;16.612;2022-12-08T09:23:32;16.80;;;11.30;;
26598;SDS011;14240;51.064;16.612;2022-12-08T09:25:58;16.67;;;10.10;;
26598;SDS011;14240;51.064;16.612;2022-12-08T09:28:24;16.15;;;11.50;;
26598;SDS011;14240;51.064;16.612;2022-12-08T09:30:50;21.90;;;14.02;;
26598;SDS011;14240;51.064;16.612;2022-12-08T09:33:16;21.92;;;11.93;;
26598;SDS011;14240;51.064;16.612;2022-12-08T09:35:41;17.70;;;8.90;;
26598;SDS011;14240;51.064;16.612;2022-12-08T09:38:07;19.25;;;9.57;;
26598;SDS011;14240;51.064;16.612;2022-12-08T09:40:35;18.20;;;10.77;;
26598;SDS011;14240;51.064;16.612;2022-12-08T09:45:59;11.10;;;7.13;;
26598;SDS011;14240;51.064;16.612;2022-12-08T09:48:32;13.90;;;8.48;;
26598;SDS011;14240;51.064;16.612;2022-12-08T09:51:01;10.93;;;6.68;;
26598;SDS011;14240;51.064;16.612;2022-12-08T09:53:36;8.63;;;6.30;;
26598;SDS011;14240;51.064;16.612;2022-12-08T09:56:12;10.13;;;6.78;;
26598;SDS011;14240;51.064;16.612;2022-12-08T09:58:50;9.77;;;6.97;;
26598;SDS011;14240;51.064;16.612;2022-12-08T10:01:27;15.23;;;7.77;;
26598;SDS011;14240;51.064;16.612;2022-12-08T10:03:55;10.40;;;6.38;;
26598;SDS011;14240;51.064;16.612;2022-12-08T10:11:31;36.20;;;16.65;;
26598;SDS011;14240;51.064;16.612;2022-12-08T10:14:24;46.50;;;22.70;;
26598;SDS011;14240;51.064;16.612;2022-12-08T10:17:14;29.00;;;14.55;;
26598;SDS011;14240;51.064;16.612;2022-12-08T10:19:44;31.38;;;14.88;;
26598;SDS011;14240;51.064;16.612;2022-12-08T10:22:23;38.20;;;18.20;;
26598;SDS011;14240;51.064;16.612;2022-12-08T10:25:04;17.98;;;9.02;;
26598;SDS011;14240;51.064;16.612;2022-12-08T10:27:37;17.40;;;9.57;;
26598;SDS011;14240;51.064;16.612;2022-12-08T10:30:12;12.88;;;6.78;;
26598;SDS011;14240;51.064;16.612;2022-12-08T10:32:39;18.33;;;8.65;;
26598;SDS011;14240;51.064;16.612;2022-12-08T10:35:13;17.83;;;9.18;;
26598;SDS011;14240;51.064;16.612;2022-12-08T10:37:39;21.48;;;9.77;;
26598;SDS011;14240;51.064;16.612;2022-12-08T10:40:09;12.10;;;7.00;;
26598;SDS011;14240;51.064;16.612;2022-12-08T10:42:39;18.02;;;9.93;;
26598;SDS011;14240;51.064;16.612;2022-12-08T10:47:36;26.05;;;9.10;;
26598;SDS011;14240;51.064;16.612;2022-12-08T10:50:05;14.27;;;8.55;;
26598;SDS011;14240;51.064;16.612;2022-12-08T10:52:38;23.17;;;9.27;;
26598;SDS011;14240;51.064;16.612;2022-12-08T10:55:14;12.68;;;6.68;;
26598;SDS011;14240;51.064;16.612;2022-12-08T10:57:42;15.00;;;7.03;;
26598;SDS011;14240;51.064;16.612;2022-12-08T11:00:11;15.57;;;7.40;;
26598;SDS011;14240;51.064;16.612;2022-12-08T11:05:25;13.38;;;8.32;;
26598;SDS011;14240;51.064;16.612;2022-12-08T11:07:53;18.42;;;8.23;;
26598;SDS011;14240;51.064;16.612;2022-12-08T11:10:24;13.35;;;7.55;;
26598;SDS011;14240;51.064;16.612;2022-12-08T11:12:57;12.55;;;7.72;;
26598;SDS011;14240;51.064;16.612;2022-12-08T11:15:30;18.52;;;9.57;;
26598;SDS011;14240;51.064;16.612;2022-12-08T11:18:17;17.75;;;9.32;;
26598;SDS011;14240;51.064;16.612;2022-12-08T11:20:55;15.30;;;8.13;;
26598;SDS011;14240;51.064;16.612;2022-12-08T11:23:23;15.27;;;7.53;;
26598;SDS011;14240;51.064;16.612;2022-12-08T11:25:51;18.92;;;8.82;;
26598;SDS011;14240;51.064;16.612;2022-12-08T11:28:22;16.92;;;8.43;;
26598;SDS011;14240;51.064;16.612;2022-12-08T11:30:51;22.85;;;10.85;;
26598;SDS011;14240;51.064;16.612;2022-12-08T11:33:47;12.95;;;8.20;;
26598;SDS011;14240;51.064;16.612;2022-12-08T11:36:14;29.00;;;12.70;;
26598;SDS011;14240;51.064;16.612;2022-12-08T11:38:41;15.82;;;8.45;;
26598;SDS011;14240;51.064;16.612;2022-12-08T11:41:13;23.40;;;10.88;;
26598;SDS011;14240;51.064;16.612;2022-12-08T11:43:49;16.33;;;8.55;;
26598;SDS011;14240;51.064;16.612;2022-12-08T11:46:23;18.58;;;9.13;;
26598;SDS011;14240;51.064;16.612;2022-12-08T11:49:00;16.27;;;9.15;;
26598;SDS011;14240;51.064;16.612;2022-12-08T11:56:33;39.05;;;16.27;;
26598;SDS011;14240;51.064;16.612;2022-12-08T12:01:58;31.88;;;14.52;;
26598;SDS011;14240;51.064;16.612;2022-12-08T12:04:30;27.42;;;11.38;;
26598;SDS011;14240;51.064;16.612;2022-12-08T12:09:43;26.42;;;11.68;;
26598;SDS011;14240;51.064;16.612;2022-12-08T12:17:54;19.13;;;9.23;;
26598;SDS011;14240;51.064;16.612;2022-12-08T12:23:03;20.27;;;10.57;;
26598;SDS011;14240;51.064;16.612;2022-12-08T12:25:30;23.70;;;10.52;;
26598;SDS011;14240;51.064;16.612;2022-12-08T12:27:59;17.27;;;9.02;;
26598;SDS011;14240;51.064;16.612;2022-12-08T12:30:32;21.60;;;9.98;;
26598;SDS011;14240;51.064;16.612;2022-12-08T12:33:20;20.95;;;10.35;;
26598;SDS011;14240;51.064;16.612;2022-12-08T12:35:46;17.55;;;9.85;;
26598;SDS011;14240;51.064;16.612;2022-12-08T12:38:23;29.80;;;12.27;;
26598;SDS011;14240;51.064;16.612;2022-12-08T12:41:12;23.95;;;11.52;;
26598;SDS011;14240;51.064;16.612;2022-12-08T12:43:39;21.30;;;9.73;;
26598;SDS011;14240;51.064;16.612;2022-12-08T12:59:46;22.63;;;10.18;;
26598;SDS011;14240;51.064;16.612;2022-12-08T13:05:01;23.42;;;10.98;;
26598;SDS011;14240;51.064;16.612;2022-12-08T13:07:28;18.67;;;10.02;;
26598;SDS011;14240;51.064;16.612;2022-12-08T13:09:58;18.48;;;10.23;;
26598;SDS011;14240;51.064;16.612;2022-12-08T13:12:39;23.40;;;10.63;;
26598;SDS011;14240;51.064;16.612;2022-12-08T13:15:12;20.63;;;10.70;;
26598;SDS011;14240;51.064;16.612;2022-12-08T13:17:43;40.65;;;15.18;;
26598;SDS011;14240;51.064;16.612;2022-12-08T13:20:23;25.35;;;12.38;;
26598;SDS011;14240;51.064;16.612;2022-12-08T13:30:44;24.23;;;11.50;;
26598;SDS011;14240;51.064;16.612;2022-12-08T13:38:49;78.93;;;31.60;;
26598;SDS011;14240;51.064;16.612;2022-12-08T13:41:21;49.28;;;19.98;;
26598;SDS011;14240;51.064;16.612;2022-12-08T13:44:14;26.10;;;13.18;;
26598;SDS011;14240;51.064;16.612;2022-12-08T13:46:51;25.10;;;14.00;;
26598;SDS011;14240;51.064;16.612;2022-12-08T13:49:23;36.22;;;16.33;;
26598;SDS011;14240;51.064;16.612;2022-12-08T13:51:54;43.15;;;17.15;;
26598;SDS011;14240;51.064;16.612;2022-12-08T13:54:24;35.65;;;16.50;;
26598;SDS011;14240;51.064;16.612;2022-12-08T13:56:50;44.55;;;19.08;;
26598;SDS011;14240;51.064;16.612;2022-12-08T13:59:32;52.53;;;21.35;;
26598;SDS011;14240;51.064;16.612;2022-12-08T14:02:03;35.13;;;17.13;;
26598;SDS011;14240;51.064;16.612;2022-12-08T14:04:38;45.65;;;19.83;;
26598;SDS011;14240;51.064;16.612;2022-12-08T14:07:09;62.30;;;25.33;;
26598;SDS011;14240;51.064;16.612;2022-12-08T14:09:36;54.90;;;23.40;;
26598;SDS011;14240;51.064;16.612;2022-12-08T14:12:04;55.63;;;22.13;;
26598;SDS011;14240;51.064;16.612;2022-12-08T14:14:40;55.77;;;23.03;;
26598;SDS011;14240;51.064;16.612;2022-12-08T14:17:13;66.95;;;28.48;;
26598;SDS011;14240;51.064;16.612;2022-12-08T14:19:43;97.85;;;35.95;;
26598;SDS011;14240;51.064;16.612;2022-12-08T14:22:16;102.40;;;34.35;;
26598;SDS011;14240;51.064;16.612;2022-12-08T14:24:48;98.00;;;32.53;;
26598;SDS011;14240;51.064;16.612;2022-12-08T14:27:23;115.07;;;45.85;;
26598;SDS011;14240;51.064;16.612;2022-12-08T14:29:52;109.05;;;42.92;;
26598;SDS011;14240;51.064;16.612;2022-12-08T14:32:29;97.75;;;34.80;;
26598;SDS011;14240;51.064;16.612;2022-12-08T14:37:34;68.32;;;22.20;;
26598;SDS011;14240;51.064;16.612;2022-12-08T14:40:04;81.07;;;34.57;;
26598;SDS011;14240;51.064;16.612;2022-12-08T14:42:43;80.28;;;25.08;;
26598;SDS011;14240;51.064;16.612;2022-12-08T14:45:20;62.17;;;19.75;;
26598;SDS011;14240;51.064;16.612;2022-12-08T14:47:46;70.38;;;27.77;;
26598;SDS011;14240;51.064;16.612;2022-12-08T14:53:02;146.48;;;50.55;;
26598;SDS011;14240;51.064;16.612;2022-12-08T14:55:33;149.93;;;48.08;;
26598;SDS011;14240;51.064;16.612;2022-12-08T14:58:00;104.15;;;38.47;;
26598;SDS011;14240;51.064;16.612;2022-12-08T15:00:26;118.53;;;42.65;;
26598;SDS011;14240;51.064;16.612;2022-12-08T15:02:52;73.30;;;31.45;;
26598;SDS011;14240;51.064;16.612;2022-12-08T15:05:19;66.45;;;27.90;;
26598;SDS011;14240;51.064;16.612;2022-12-08T15:07:50;50.87;;;23.53;;
26598;SDS011;14240;51.064;16.612;2022-12-08T15:10:22;42.40;;;18.73;;
26598;SDS011;14240;51.064;16.612;2022-12-08T15:13:19;37.15;;;16.85;;
26598;SDS011;14240;51.064;16.612;2022-12-08T15:18:16;58.08;;;24.45;;
26598;SDS011;14240;51.064;16.612;2022-12-08T15:20:45;60.83;;;27.80;;
26598;SDS011;14240;51.064;16.612;2022-12-08T15:23:20;74.07;;;31.23;;
26598;SDS011;14240;51.064;16.612;2022-12-08T15:25:50;83.07;;;33.92;;
26598;SDS011;14240;51.064;16.612;2022-12-08T15:28:17;104.82;;;39.28;;
26598;SDS011;14240;51.064;16.612;2022-12-08T15:30:45;170.05;;;54.53;;
26598;SDS011;14240;51.064;16.612;2022-12-08T15:33:11;167.80;;;52.67;;
26598;SDS011;14240;51.064;16.612;2022-12-08T15:35:37;148.48;;;49.17;;
26598;SDS011;14240;51.064;16.612;2022-12-08T15:38:03;174.48;;;55.22;;
26598;SDS011;14240;51.064;16.612;2022-12-08T15:40:29;139.05;;;45.35;;
26598;SDS011;14240;51.064;16.612;2022-12-08T15:42:55;115.80;;;40.35;;
26598;SDS011;14240;51.064;16.612;2022-12-08T15:45:22;119.07;;;39.97;;
26598;SDS011;14240;51.064;16.612;2022-12-08T15:47:52;91.68;;;31.92;;
26598;SDS011;14240;51.064;16.612;2022-12-08T15:50:19;77.85;;;30.08;;
26598;SDS011;14240;51.064;16.612;2022-12-08T15:52:46;78.75;;;29.55;;
26598;SDS011;14240;51.064;16.612;2022-12-08T15:55:12;90.88;;;33.15;;
26598;SDS011;14240;51.064;16.612;2022-12-08T15:57:39;77.00;;;29.75;;
26598;SDS011;14240;51.064;16.612;2022-12-08T16:00:28;72.70;;;28.15;;
26598;SDS011;14240;51.064;16.612;2022-12-08T16:02:56;73.35;;;27.85;;
26598;SDS011;14240;51.064;16.612;2022-12-08T16:05:22;75.03;;;28.40;;
26598;SDS011;14240;51.064;16.612;2022-12-08T16:07:48;65.07;;;26.70;;